Time;durP1;ratioP1;P1;durP2;ratioP2;P2;SDS_P1;SDS_P2;PMS_P1;PMS_P2;Temp;Humidity;BMP_temperature;BMP_pressure;BME280_temperature;BME280_humidity;BME280_pressure;Samples;Min_cycle;Max_cycle;Signal;HPM_P1;HPM_P2
2022/08/07 00:00:32;;;;;;;13.65;3.13;;;;;;;;;;5012808;28;20041;-50
2022/08/07 00:02:59;;;;;;;15.13;2.83;;;;;;;;;;5013838;28;20025;-51
2022/08/07 00:05:28;;;;;;;11.18;2.58;;;;;;;;;;5012478;28;20034;-52
2022/08/07 00:07:56;;;;;;;15.60;3.40;;;;;;;;;;5012031;28;20030;-55
2022/08/07 00:10:23;;;;;;;17.15;3.42;;;;;;;;;;5013768;28;20022;-52
2022/08/07 00:12:50;;;;;;;11.15;2.92;;;;;;;;;;5013718;28;20101;-51
2022/08/07 00:15:17;;;;;;;13.40;3.20;;;;;;;;;;5014278;28;20023;-53
2022/08/07 00:17:44;;;;;;;16.33;3.13;;;;;;;;;;5012850;28;20038;-55
2022/08/07 00:20:11;;;;;;;8.02;3.05;;;;;;;;;;4980554;28;20076;-60
2022/08/07 00:22:38;;;;;;;12.07;3.90;;;;;;;;;;4993643;28;20396;-54
2022/08/07 00:25:09;;;;;;;11.57;4.82;;;;;;;;;;5011738;28;20037;-50
2022/08/07 00:27:36;;;;;;;14.27;5.47;;;;;;;;;;5012132;28;20076;-52
2022/08/07 00:30:04;;;;;;;17.55;6.38;;;;;;;;;;5012298;28;20484;-52
2022/08/07 00:32:31;;;;;;;14.88;6.60;;;;;;;;;;5012437;28;20025;-52
2022/08/07 00:34:58;;;;;;;14.40;6.70;;;;;;;;;;5012516;28;20480;-51
2022/08/07 00:37:25;;;;;;;15.32;7.13;;;;;;;;;;5013528;28;20049;-52
2022/08/07 00:39:53;;;;;;;14.45;7.20;;;;;;;;;;5013638;28;20034;-55
2022/08/07 00:42:20;;;;;;;19.10;8.40;;;;;;;;;;5014003;28;20101;-54
2022/08/07 00:44:48;;;;;;;20.15;8.88;;;;;;;;;;5013432;28;20033;-54
2022/08/07 00:47:15;;;;;;;17.08;8.18;;;;;;;;;;5013998;28;20030;-50
2022/08/07 00:49:42;;;;;;;18.33;8.98;;;;;;;;;;5013778;28;20492;-55
2022/08/07 00:52:09;;;;;;;14.65;8.63;;;;;;;;;;5011337;28;20030;-52
2022/08/07 00:54:36;;;;;;;24.98;9.73;;;;;;;;;;5011622;28;20064;-50
2022/08/07 00:57:04;;;;;;;17.65;8.95;;;;;;;;;;5012013;28;20104;-54
2022/08/07 00:59:31;;;;;;;16.08;8.68;;;;;;;;;;5012354;28;20030;-54
2022/08/07 01:01:58;;;;;;;18.63;8.65;;;;;;;;;;5013395;28;20033;-53
2022/08/07 01:04:25;;;;;;;18.70;8.65;;;;;;;;;;5013489;28;20104;-54
2022/08/07 01:06:54;;;;;;;15.32;8.70;;;;;;;;;;5011927;28;20044;-53
2022/08/07 01:09:22;;;;;;;15.23;8.38;;;;;;;;;;5013177;28;20033;-56
2022/08/07 01:11:52;;;;;;;15.77;8.35;;;;;;;;;;4996604;28;20045;-55
2022/08/07 01:14:20;;;;;;;17.88;8.73;;;;;;;;;;5013019;28;20101;-56
2022/08/07 01:16:48;;;;;;;17.85;8.13;;;;;;;;;;5013652;28;20018;-51
2022/08/07 01:19:21;;;;;;;21.27;8.45;;;;;;;;;;5013201;28;20032;-52
2022/08/07 01:21:50;;;;;;;17.00;8.88;;;;;;;;;;5012709;28;20084;-54
2022/08/07 01:24:19;;;;;;;20.02;8.30;;;;;;;;;;5013361;28;20488;-52
2022/08/07 01:26:47;;;;;;;15.23;7.43;;;;;;;;;;5013434;28;20029;-51
2022/08/07 01:29:15;;;;;;;14.38;7.20;;;;;;;;;;5012988;28;20022;-50
2022/08/07 01:31:43;;;;;;;25.08;7.13;;;;;;;;;;5013172;28;20034;-56
2022/08/07 01:34:13;;;;;;;14.68;7.50;;;;;;;;;;5013224;28;20018;-51
2022/08/07 01:36:40;;;;;;;14.88;7.03;;;;;;;;;;5010614;28;20064;-53
2022/08/07 01:39:08;;;;;;;12.75;6.53;;;;;;;;;;5011876;28;20036;-55
2022/08/07 01:41:35;;;;;;;11.63;6.60;;;;;;;;;;5012100;28;20098;-54
2022/08/07 01:44:03;;;;;;;15.65;6.72;;;;;;;;;;5010591;28;20473;-51
2022/08/07 01:46:30;;;;;;;19.25;7.15;;;;;;;;;;5011576;28;20105;-56
2022/08/07 01:48:58;;;;;;;12.35;5.93;;;;;;;;;;5012615;28;20022;-52
2022/08/07 01:51:27;;;;;;;12.85;5.95;;;;;;;;;;5012522;28;20025;-55
2022/08/07 01:53:59;;;;;;;11.88;5.60;;;;;;;;;;4994934;28;20033;-54
2022/08/07 01:56:41;;;;;;;9.75;5.68;;;;;;;;;;5012736;28;20029;-54
2022/08/07 01:59:12;;;;;;;10.50;5.28;;;;;;;;;;5012634;28;20084;-56
2022/08/07 02:01:42;;;;;;;11.93;5.55;;;;;;;;;;5012713;28;20022;-51
2022/08/07 02:04:16;;;;;;;13.02;5.55;;;;;;;;;;5012351;28;20018;-51
2022/08/07 02:06:45;;;;;;;10.30;5.03;;;;;;;;;;5012432;28;20029;-54
2022/08/07 02:09:16;;;;;;;11.05;5.38;;;;;;;;;;5012307;28;20041;-53
2022/08/07 02:11:45;;;;;;;11.98;5.32;;;;;;;;;;5012179;28;20746;-56
2022/08/07 02:14:14;;;;;;;10.95;5.20;;;;;;;;;;4994665;28;20030;-52
2022/08/07 02:16:44;;;;;;;8.05;4.60;;;;;;;;;;5012013;28;20057;-53
2022/08/07 02:19:13;;;;;;;8.38;4.13;;;;;;;;;;5012306;28;20026;-52
2022/08/07 02:21:42;;;;;;;9.38;3.90;;;;;;;;;;5012550;28;20083;-53
2022/08/07 02:24:11;;;;;;;9.43;4.03;;;;;;;;;;5012374;28;20025;-50
2022/08/07 02:26:38;;;;;;;9.18;3.90;;;;;;;;;;5012417;28;20038;-52
2022/08/07 02:31:51;;;;;;;8.43;3.83;;;;;;;;;;5024095;28;20064;-58
2022/08/07 02:34:20;;;;;;;8.20;3.88;;;;;;;;;;5007451;28;20160;-59
2022/08/07 02:36:48;;;;;;;9.30;3.67;;;;;;;;;;5011204;28;20022;-59
2022/08/07 02:39:16;;;;;;;6.00;3.35;;;;;;;;;;5012503;28;20084;-59
2022/08/07 02:41:43;;;;;;;7.43;3.70;;;;;;;;;;5010232;28;20018;-60
2022/08/07 02:44:11;;;;;;;8.43;3.45;;;;;;;;;;5010889;28;20041;-60
2022/08/07 02:46:39;;;;;;;5.30;3.10;;;;;;;;;;5011024;28;20069;-58
2022/08/07 02:49:06;;;;;;;7.30;3.67;;;;;;;;;;5010699;28;20538;-59
2022/08/07 02:51:35;;;;;;;5.97;3.25;;;;;;;;;;5010361;28;20073;-60
2022/08/07 02:54:03;;;;;;;6.97;3.28;;;;;;;;;;5010546;28;20040;-59
2022/08/07 02:56:32;;;;;;;8.27;3.17;;;;;;;;;;5008536;28;20026;-57
2022/08/07 02:59:00;;;;;;;6.15;3.28;;;;;;;;;;5014875;28;20044;-60
2022/08/07 03:01:27;;;;;;;7.45;2.88;;;;;;;;;;5013475;28;20018;-59
2022/08/07 03:03:55;;;;;;;6.15;3.03;;;;;;;;;;5014604;28;20075;-59
2022/08/07 03:06:23;;;;;;;7.25;3.05;;;;;;;;;;5014706;28;20044;-60
2022/08/07 03:08:51;;;;;;;5.50;3.00;;;;;;;;;;5012514;28;20507;-59
2022/08/07 03:11:18;;;;;;;8.20;3.00;;;;;;;;;;5014059;28;20044;-59
2022/08/07 03:13:45;;;;;;;5.53;2.83;;;;;;;;;;5014479;28;20430;-58
2022/08/07 03:16:13;;;;;;;5.13;2.88;;;;;;;;;;4996631;28;20045;-59
2022/08/07 03:18:49;;;;;;;6.13;2.95;;;;;;;;;;5014018;28;20049;-59
2022/08/07 03:21:17;;;;;;;5.35;2.65;;;;;;;;;;4996848;28;20152;-59
2022/08/07 03:23:45;;;;;;;5.30;2.75;;;;;;;;;;5007143;28;20109;-60
2022/08/07 03:26:14;;;;;;;4.20;2.50;;;;;;;;;;4996279;28;20105;-61
2022/08/07 03:28:41;;;;;;;5.90;2.42;;;;;;;;;;5005910;28;20038;-60
2022/08/07 03:31:18;;;;;;;5.88;2.80;;;;;;;;;;4996618;28;20081;-60
2022/08/07 03:33:47;;;;;;;5.05;2.40;;;;;;;;;;4996190;28;20105;-60
2022/08/07 03:36:14;;;;;;;6.07;2.58;;;;;;;;;;4996485;28;20041;-60
2022/08/07 03:38:42;;;;;;;5.13;2.50;;;;;;;;;;4996523;28;20026;-60
2022/08/07 03:41:10;;;;;;;5.30;2.40;;;;;;;;;;4996415;28;20030;-60
2022/08/07 03:43:38;;;;;;;4.93;2.30;;;;;;;;;;4996308;28;20361;-60
2022/08/07 03:46:06;;;;;;;4.70;2.38;;;;;;;;;;4996252;28;20034;-60
2022/08/07 03:48:36;;;;;;;4.50;1.92;;;;;;;;;;4996382;28;20076;-60
2022/08/07 03:51:03;;;;;;;4.63;2.20;;;;;;;;;;4996173;28;20026;-60
2022/08/07 03:53:31;;;;;;;4.05;2.13;;;;;;;;;;4996317;28;20018;-60
2022/08/07 03:55:59;;;;;;;6.00;2.50;;;;;;;;;;4996012;28;20030;-60
2022/08/07 03:58:26;;;;;;;5.18;2.25;;;;;;;;;;4996205;28;20025;-60
2022/08/07 04:00:54;;;;;;;6.45;2.30;;;;;;;;;;4995964;28;20392;-60
2022/08/07 04:03:21;;;;;;;4.80;2.35;;;;;;;;;;4996093;28;20037;-60
2022/08/07 04:05:48;;;;;;;4.65;2.22;;;;;;;;;;4995909;28;20501;-60
2022/08/07 04:08:15;;;;;;;3.95;1.92;;;;;;;;;;4995895;28;20023;-60
2022/08/07 04:10:43;;;;;;;3.58;1.92;;;;;;;;;;4995733;28;20425;-60
2022/08/07 04:13:13;;;;;;;4.70;2.13;;;;;;;;;;4995912;28;20377;-60
2022/08/07 04:15:41;;;;;;;5.72;2.15;;;;;;;;;;4995919;28;20053;-60
2022/08/07 04:18:08;;;;;;;3.70;1.98;;;;;;;;;;4995803;28;20019;-60
2022/08/07 04:20:35;;;;;;;3.72;2.17;;;;;;;;;;4995624;28;20484;-60
2022/08/07 04:23:02;;;;;;;5.28;2.22;;;;;;;;;;4995727;28;20471;-60
2022/08/07 04:25:30;;;;;;;6.90;2.50;;;;;;;;;;4995650;28;20039;-60
2022/08/07 04:27:57;;;;;;;5.10;1.92;;;;;;;;;;4997078;28;20424;-60
2022/08/07 04:30:24;;;;;;;3.30;1.92;;;;;;;;;;4996275;28;20500;-59
2022/08/07 04:32:51;;;;;;;5.18;2.20;;;;;;;;;;4997887;28;20123;-59
2022/08/07 04:35:18;;;;;;;4.78;2.00;;;;;;;;;;5003048;28;20101;-60
2022/08/07 04:37:45;;;;;;;3.95;1.90;;;;;;;;;;5005505;28;20459;-60
2022/08/07 04:40:12;;;;;;;5.85;1.95;;;;;;;;;;5003898;28;20030;-60
2022/08/07 04:42:39;;;;;;;4.80;2.15;;;;;;;;;;5004073;28;20079;-60
2022/08/07 04:45:07;;;;;;;3.67;1.50;;;;;;;;;;5005325;28;20045;-61
2022/08/07 04:47:37;;;;;;;6.43;1.90;;;;;;;;;;5004018;28;20045;-60
2022/08/07 04:50:12;;;;;;;5.45;2.08;;;;;;;;;;5003244;28;20484;-60
2022/08/07 04:52:53;;;;;;;4.07;1.90;;;;;;;;;;5005376;28;20022;-60
2022/08/07 04:55:30;;;;;;;3.90;1.77;;;;;;;;;;5003078;28;20372;-60
2022/08/07 04:58:11;;;;;;;4.70;1.88;;;;;;;;;;4995046;28;20030;-60
2022/08/07 05:00:44;;;;;;;4.50;1.67;;;;;;;;;;4994917;28;20480;-60
2022/08/07 05:03:14;;;;;;;4.85;2.10;;;;;;;;;;4994837;28;20038;-60
2022/08/07 05:05:49;;;;;;;5.50;1.60;;;;;;;;;;4994530;28;20038;-60
2022/08/07 05:08:42;;;;;;;6.72;1.90;;;;;;;;;;4994875;28;20026;-60
2022/08/07 05:11:14;;;;;;;4.10;1.95;;;;;;;;;;4958022;28;20038;-60
2022/08/07 05:13:45;;;;;;;5.07;1.93;;;;;;;;;;4994951;28;20389;-60
2022/08/07 05:16:14;;;;;;;4.63;1.70;;;;;;;;;;4994615;28;20038;-60
2022/08/07 05:18:46;;;;;;;3.33;1.77;;;;;;;;;;4994615;28;20112;-60
2022/08/07 05:21:13;;;;;;;5.65;1.88;;;;;;;;;;4994036;28;20040;-61
2022/08/07 05:23:43;;;;;;;5.10;1.77;;;;;;;;;;4994391;28;20026;-60
2022/08/07 05:26:12;;;;;;;4.13;1.42;;;;;;;;;;4994357;28;20132;-60
2022/08/07 05:28:40;;;;;;;5.57;1.70;;;;;;;;;;4994355;28;20022;-60
2022/08/07 05:31:08;;;;;;;3.33;1.40;;;;;;;;;;4994044;28;20049;-60
2022/08/07 05:33:36;;;;;;;5.13;1.77;;;;;;;;;;4994408;28;20023;-60
2022/08/07 05:36:04;;;;;;;6.15;1.50;;;;;;;;;;4994361;28;20036;-60
2022/08/07 05:38:31;;;;;;;3.47;1.50;;;;;;;;;;4994256;28;20034;-60
2022/08/07 05:40:58;;;;;;;4.78;1.60;;;;;;;;;;4994213;28;20039;-60
2022/08/07 05:43:25;;;;;;;3.38;1.50;;;;;;;;;;4994229;28;20033;-60
2022/08/07 05:45:52;;;;;;;4.22;1.50;;;;;;;;;;4993987;28;20117;-60
2022/08/07 05:48:20;;;;;;;4.72;1.67;;;;;;;;;;4994145;28;20023;-60
2022/08/07 05:50:47;;;;;;;3.15;1.25;;;;;;;;;;4993938;28;20034;-60
2022/08/07 05:53:14;;;;;;;4.03;1.70;;;;;;;;;;4993923;28;20041;-60
2022/08/07 05:55:42;;;;;;;2.45;1.40;;;;;;;;;;4993927;28;20065;-60
2022/08/07 05:58:10;;;;;;;3.25;1.40;;;;;;;;;;4993964;28;20030;-59
2022/08/07 06:00:37;;;;;;;2.85;1.65;;;;;;;;;;4993523;28;20046;-60
2022/08/07 06:03:05;;;;;;;5.90;1.60;;;;;;;;;;5010377;28;20026;-60
2022/08/07 06:05:32;;;;;;;5.60;1.52;;;;;;;;;;5013392;28;20487;-60
2022/08/07 06:07:59;;;;;;;3.35;1.50;;;;;;;;;;5013480;28;20052;-60
2022/08/07 06:10:27;;;;;;;3.38;1.40;;;;;;;;;;5013185;28;20462;-60
2022/08/07 06:12:54;;;;;;;5.50;1.65;;;;;;;;;;5013323;28;20041;-60
2022/08/07 06:15:22;;;;;;;2.80;1.50;;;;;;;;;;5013323;28;20030;-60
2022/08/07 06:17:49;;;;;;;3.17;1.50;;;;;;;;;;5013371;28;20025;-60
2022/08/07 06:20:16;;;;;;;2.45;1.10;;;;;;;;;;5013146;28;20034;-60
2022/08/07 06:22:44;;;;;;;3.42;1.35;;;;;;;;;;5012958;28;20042;-60
2022/08/07 06:25:11;;;;;;;3.45;1.60;;;;;;;;;;5013052;28;20033;-60
2022/08/07 06:27:38;;;;;;;3.28;1.38;;;;;;;;;;5013181;28;20040;-60
2022/08/07 06:30:05;;;;;;;3.60;1.52;;;;;;;;;;5012809;28;20042;-59
2022/08/07 06:32:32;;;;;;;5.53;1.38;;;;;;;;;;5156620;22;20057;-56
2022/08/07 06:35:00;;;;;;;5.57;1.67;;;;;;;;;;4994162;28;20037;-56
2022/08/07 06:37:27;;;;;;;3.55;1.30;;;;;;;;;;4993733;28;20081;-55
2022/08/07 06:39:53;;;;;;;3.65;1.15;;;;;;;;;;4993462;28;20488;-56
2022/08/07 06:42:24;;;;;;;2.78;1.15;;;;;;;;;;4993519;28;20035;-55
2022/08/07 06:44:51;;;;;;;5.50;1.27;;;;;;;;;;4993301;28;20061;-55
2022/08/07 06:47:19;;;;;;;2.30;1.20;;;;;;;;;;4993276;28;20038;-56
2022/08/07 06:49:46;;;;;;;2.42;1.20;;;;;;;;;;4993295;28;20035;-54
2022/08/07 06:52:15;;;;;;;2.13;1.38;;;;;;;;;;4992850;28;20026;-55
2022/08/07 06:54:43;;;;;;;1.90;1.10;;;;;;;;;;4993158;28;20034;-55
2022/08/07 06:57:10;;;;;;;4.13;1.27;;;;;;;;;;4993450;28;20105;-54
2022/08/07 06:59:39;;;;;;;1.92;1.20;;;;;;;;;;4993064;28;20048;-53
2022/08/07 07:02:08;;;;;;;1.75;0.98;;;;;;;;;;4993042;28;20473;-54
2022/08/07 07:04:35;;;;;;;2.35;1.00;;;;;;;;;;4993111;28;20038;-55
2022/08/07 07:07:05;;;;;;;2.92;1.10;;;;;;;;;;4993015;28;20480;-55
2022/08/07 07:09:33;;;;;;;1.98;1.00;;;;;;;;;;4992925;28;20035;-52
2022/08/07 07:12:06;;;;;;;2.80;1.00;;;;;;;;;;4992880;28;20018;-54
2022/08/07 07:14:39;;;;;;;2.80;1.20;;;;;;;;;;4993074;28;20030;-55
2022/08/07 07:17:20;;;;;;;3.50;1.20;;;;;;;;;;4993033;28;20038;-54
2022/08/07 07:19:49;;;;;;;2.28;1.30;;;;;;;;;;4993016;28;20526;-53
2022/08/07 07:22:17;;;;;;;1.85;1.08;;;;;;;;;;4992799;28;20026;-56
2022/08/07 07:24:44;;;;;;;1.60;1.10;;;;;;;;;;4992884;28;20106;-54
2022/08/07 07:27:13;;;;;;;2.28;1.05;;;;;;;;;;4992887;28;20374;-56
2022/08/07 07:29:42;;;;;;;1.95;1.10;;;;;;;;;;4992859;28;20022;-56
2022/08/07 07:32:12;;;;;;;3.85;1.35;;;;;;;;;;4992599;28;20500;-55
2022/08/07 07:34:42;;;;;;;2.13;1.02;;;;;;;;;;4992773;28;20046;-56
2022/08/07 07:37:09;;;;;;;2.70;1.08;;;;;;;;;;4992832;28;20380;-53
2022/08/07 07:39:38;;;;;;;1.92;1.00;;;;;;;;;;4992681;28;20037;-54
2022/08/07 07:42:06;;;;;;;3.30;1.10;;;;;;;;;;4992692;28;20022;-51
2022/08/07 07:44:33;;;;;;;3.10;1.33;;;;;;;;;;4996043;28;20038;-51
2022/08/07 07:47:01;;;;;;;1.48;1.00;;;;;;;;;;4996459;28;20512;-53
2022/08/07 07:49:30;;;;;;;3.97;0.95;;;;;;;;;;4996362;28;20030;-53
2022/08/07 07:51:58;;;;;;;1.35;1.05;;;;;;;;;;4996301;28;20034;-52
2022/08/07 07:54:26;;;;;;;1.30;0.77;;;;;;;;;;4996230;28;20027;-49
2022/08/07 07:56:54;;;;;;;1.52;1.00;;;;;;;;;;4996265;28;20038;-53
2022/08/07 07:59:21;;;;;;;2.70;1.10;;;;;;;;;;4996104;28;20101;-51
2022/08/07 08:01:49;;;;;;;3.22;1.35;;;;;;;;;;4996076;28;20117;-51
2022/08/07 08:04:17;;;;;;;1.83;1.00;;;;;;;;;;4996086;28;20023;-51
2022/08/07 08:06:45;;;;;;;3.63;1.00;;;;;;;;;;4995384;28;20065;-49
2022/08/07 08:09:12;;;;;;;1.80;1.00;;;;;;;;;;4996001;28;20018;-51
2022/08/07 08:11:40;;;;;;;1.80;0.88;;;;;;;;;;4995803;28;20416;-51
2022/08/07 08:14:07;;;;;;;3.97;1.13;;;;;;;;;;4995925;28;20056;-54
2022/08/07 08:16:41;;;;;;;2.00;0.90;;;;;;;;;;4995819;28;20057;-55
2022/08/07 08:19:10;;;;;;;4.20;1.30;;;;;;;;;;4978322;28;20792;-52
2022/08/07 08:27:13;;;;;;;3.58;1.38;;;;;;;;;;4996001;28;20058;-51
2022/08/07 08:30:00;;;;;;;2.65;1.00;;;;;;;;;;4995613;28;20443;-51
2022/08/07 08:32:28;;;;;;;2.25;0.93;;;;;;;;;;4995152;28;20491;-52
2022/08/07 08:34:57;;;;;;;1.70;0.70;;;;;;;;;;4995517;28;20034;-51
2022/08/07 08:37:25;;;;;;;2.95;1.00;;;;;;;;;;4995495;28;20780;-52
2022/08/07 08:39:52;;;;;;;1.20;0.82;;;;;;;;;;4995518;28;20061;-49
2022/08/07 08:42:37;;;;;;;1.17;0.80;;;;;;;;;;4995312;28;20563;-51
2022/08/07 08:45:10;;;;;;;2.95;0.77;;;;;;;;;;4995259;28;20039;-53
2022/08/07 08:48:00;;;;;;;1.73;0.80;;;;;;;;;;4995357;28;20503;-51
2022/08/07 08:50:31;;;;;;;0.98;0.80;;;;;;;;;;4995255;28;20034;-50
2022/08/07 08:53:20;;;;;;;1.55;0.90;;;;;;;;;;4995069;28;20062;-52
2022/08/07 08:55:53;;;;;;;2.47;0.90;;;;;;;;;;4994172;28;20461;-51
2022/08/07 08:58:28;;;;;;;2.25;0.90;;;;;;;;;;4995146;28;20027;-53
2022/08/07 09:01:00;;;;;;;2.28;0.90;;;;;;;;;;4995012;28;20515;-52
2022/08/07 09:03:44;;;;;;;1.98;0.95;;;;;;;;;;4995060;28;20445;-50
2022/08/07 09:06:17;;;;;;;0.93;0.60;;;;;;;;;;4994771;28;20038;-49
2022/08/07 09:08:56;;;;;;;1.42;0.80;;;;;;;;;;4994898;28;20038;-50
2022/08/07 09:11:23;;;;;;;1.17;0.82;;;;;;;;;;4994782;28;20034;-54
2022/08/07 09:14:08;;;;;;;2.13;1.05;;;;;;;;;;4994877;28;20038;-51
2022/08/07 09:16:48;;;;;;;1.45;0.80;;;;;;;;;;4994726;28;20042;-54
2022/08/07 09:19:15;;;;;;;2.78;0.82;;;;;;;;;;4994678;28;20058;-51
2022/08/07 09:22:00;;;;;;;1.73;0.93;;;;;;;;;;4994449;28;20026;-51
2022/08/07 09:24:46;;;;;;;3.95;0.70;;;;;;;;;;4994638;28;20033;-53
2022/08/07 09:27:31;;;;;;;6.03;0.85;;;;;;;;;;4994480;28;20085;-54
2022/08/07 09:30:01;;;;;;;2.83;1.10;;;;;;;;;;4994482;28;20026;-54
2022/08/07 09:32:37;;;;;;;1.27;0.88;;;;;;;;;;4994156;28;20054;-53
2022/08/07 09:35:11;;;;;;;2.35;0.90;;;;;;;;;;4994347;28;20030;-53
2022/08/07 09:37:48;;;;;;;2.15;0.63;;;;;;;;;;4994265;28;20038;-53
2022/08/07 09:40:34;;;;;;;1.95;0.90;;;;;;;;;;4994309;28;20504;-54
2022/08/07 09:43:08;;;;;;;3.40;0.85;;;;;;;;;;4994148;28;20396;-50
2022/08/07 09:45:35;;;;;;;3.22;0.70;;;;;;;;;;4994139;28;20112;-51
2022/08/07 09:48:10;;;;;;;1.83;0.95;;;;;;;;;;4994147;28;20034;-51
2022/08/07 09:50:54;;;;;;;1.95;0.65;;;;;;;;;;4994117;28;20516;-50
2022/08/07 09:53:22;;;;;;;3.35;1.10;;;;;;;;;;4994062;28;20420;-51
2022/08/07 09:55:49;;;;;;;1.67;0.70;;;;;;;;;;4994105;28;20034;-51
2022/08/07 09:58:34;;;;;;;3.33;0.73;;;;;;;;;;4993967;28;20030;-50
2022/08/07 10:01:08;;;;;;;1.13;0.70;;;;;;;;;;4993916;28;20048;-52
2022/08/07 10:03:47;;;;;;;1.33;0.82;;;;;;;;;;4993889;28;20022;-50
2022/08/07 10:06:23;;;;;;;1.20;0.80;;;;;;;;;;4993666;28;20031;-49
2022/08/07 10:08:50;;;;;;;1.48;0.50;;;;;;;;;;4993861;28;20022;-50
2022/08/07 10:11:35;;;;;;;1.88;0.70;;;;;;;;;;4993593;28;20069;-50
2022/08/07 10:14:20;;;;;;;1.48;0.70;;;;;;;;;;4993736;28;20400;-51
2022/08/07 10:16:57;;;;;;;2.80;0.90;;;;;;;;;;4993592;28;20046;-51
2022/08/07 10:19:33;;;;;;;2.40;0.88;;;;;;;;;;4993690;28;20081;-51
2022/08/07 10:22:12;;;;;;;3.13;0.90;;;;;;;;;;4993620;28;20128;-53
2022/08/07 10:24:57;;;;;;;2.72;0.95;;;;;;;;;;4993719;28;20038;-50
2022/08/07 10:27:39;;;;;;;4.15;1.10;;;;;;;;;;4993552;28;20030;-51
2022/08/07 10:30:08;;;;;;;3.63;0.90;;;;;;;;;;4993565;28;20018;-52
2022/08/07 10:32:48;;;;;;;2.58;0.98;;;;;;;;;;4993165;28;20082;-49
2022/08/07 10:35:33;;;;;;;2.20;0.90;;;;;;;;;;4993314;28;20093;-50
2022/08/07 10:38:00;;;;;;;2.80;0.63;;;;;;;;;;4993401;28;20018;-53
2022/08/07 10:40:30;;;;;;;2.92;0.60;;;;;;;;;;4993383;28;20023;-49
2022/08/07 10:43:01;;;;;;;2.10;0.90;;;;;;;;;;4993201;28;20126;-50
2022/08/07 10:45:44;;;;;;;0.88;0.68;;;;;;;;;;4993175;28;20046;-52
2022/08/07 10:48:27;;;;;;;2.60;0.70;;;;;;;;;;4993337;28;20438;-53
2022/08/07 10:50:55;;;;;;;2.22;0.73;;;;;;;;;;4993236;28;20037;-53
2022/08/07 10:53:36;;;;;;;1.65;0.65;;;;;;;;;;4993260;28;20428;-52
2022/08/07 10:56:06;;;;;;;1.83;0.70;;;;;;;;;;4993123;28;20090;-54
2022/08/07 10:58:46;;;;;;;2.20;0.68;;;;;;;;;;4993217;28;20475;-52
2022/08/07 11:01:23;;;;;;;2.05;0.93;;;;;;;;;;4993311;28;20137;-52
2022/08/07 11:04:13;;;;;;;1.95;0.70;;;;;;;;;;4993065;28;20035;-51
2022/08/07 11:06:58;;;;;;;3.25;0.73;;;;;;;;;;4985630;28;20141;-53
2022/08/07 11:09:28;;;;;;;3.95;1.13;;;;;;;;;;4993062;28;20046;-52
2022/08/07 11:12:02;;;;;;;1.75;0.70;;;;;;;;;;4992888;28;20515;-51
2022/08/07 11:14:50;;;;;;;3.58;0.77;;;;;;;;;;4993062;28;20038;-52
2022/08/07 11:17:19;;;;;;;1.48;0.63;;;;;;;;;;4993099;28;20492;-53
2022/08/07 11:19:46;;;;;;;1.90;0.80;;;;;;;;;;4979308;28;20069;-50
2022/08/07 11:22:22;;;;;;;3.40;0.70;;;;;;;;;;4996805;28;20081;-52
2022/08/07 11:24:49;;;;;;;1.10;0.70;;;;;;;;;;4996611;28;20461;-53
2022/08/07 11:27:29;;;;;;;1.65;0.52;;;;;;;;;;4996699;28;20030;-54
2022/08/07 11:30:03;;;;;;;2.35;0.70;;;;;;;;;;4996650;28;20018;-49
2022/08/07 11:32:41;;;;;;;1.05;0.60;;;;;;;;;;4996460;28;20085;-55
2022/08/07 11:35:28;;;;;;;1.10;0.60;;;;;;;;;;4996652;28;20030;-54
2022/08/07 11:38:04;;;;;;;1.60;0.68;;;;;;;;;;4996301;28;20373;-52
2022/08/07 11:40:40;;;;;;;1.70;0.70;;;;;;;;;;4977781;28;20026;-55
2022/08/07 11:43:22;;;;;;;1.67;0.70;;;;;;;;;;4988178;28;20076;-53
2022/08/07 11:46:07;;;;;;;1.63;0.50;;;;;;;;;;4995019;28;20381;-50
2022/08/07 11:48:40;;;;;;;1.33;0.70;;;;;;;;;;4996298;28;20022;-50
2022/08/07 11:51:13;;;;;;;2.00;0.90;;;;;;;;;;4995112;28;20034;-50
2022/08/07 11:54:02;;;;;;;1.45;0.60;;;;;;;;;;4994765;28;20040;-53
2022/08/07 11:56:35;;;;;;;2.47;0.95;;;;;;;;;;4974493;28;20121;-55
2022/08/07 11:59:17;;;;;;;2.67;0.60;;;;;;;;;;4976650;28;20050;-53
2022/08/07 12:01:47;;;;;;;3.17;1.02;;;;;;;;;;4976483;28;20027;-50
2022/08/07 12:04:20;;;;;;;2.50;0.88;;;;;;;;;;4976738;28;20022;-54
2022/08/07 12:06:54;;;;;;;1.92;0.73;;;;;;;;;;4976359;28;20042;-52
2022/08/07 12:09:56;;;;;;;4.30;0.80;;;;;;;;;;4976480;28;20055;-51
2022/08/07 12:12:27;;;;;;;1.97;0.80;;;;;;;;;;4916934;29;20119;-51
2022/08/07 12:15:06;;;;;;;1.02;0.60;;;;;;;;;;4966696;28;20047;-54
2022/08/07 12:17:39;;;;;;;0.80;0.50;;;;;;;;;;4976064;28;20031;-51
2022/08/07 12:20:16;;;;;;;2.70;0.60;;;;;;;;;;4976426;28;20027;-52
2022/08/07 12:22:56;;;;;;;2.88;0.70;;;;;;;;;;4976455;28;20062;-54
2022/08/07 12:28:22;;;;;;;2.78;0.63;;;;;;;;;;4994884;28;20128;-50
2022/08/07 12:30:50;;;;;;;3.78;0.80;;;;;;;;;;4994226;28;20476;-49
2022/08/07 12:33:19;;;;;;;1.23;0.60;;;;;;;;;;4994584;28;20046;-56
2022/08/07 12:35:49;;;;;;;2.33;0.70;;;;;;;;;;4995236;28;20034;-54
2022/08/07 12:38:16;;;;;;;2.90;1.23;;;;;;;;;;4995286;28;20034;-48
2022/08/07 12:40:44;;;;;;;5.13;1.05;;;;;;;;;;4995402;28;20088;-49
2022/08/07 12:43:11;;;;;;;4.68;0.93;;;;;;;;;;4994663;28;20045;-55
2022/08/07 12:45:47;;;;;;;2.03;0.80;;;;;;;;;;4994662;28;20046;-55
2022/08/07 12:48:37;;;;;;;2.53;0.70;;;;;;;;;;4995300;28;20389;-55
2022/08/07 12:51:15;;;;;;;1.88;0.80;;;;;;;;;;4976283;28;20050;-52
2022/08/07 12:53:44;;;;;;;2.88;0.80;;;;;;;;;;4995146;28;20485;-51
2022/08/07 12:56:26;;;;;;;2.45;0.80;;;;;;;;;;4995052;28;20066;-56
2022/08/07 12:58:54;;;;;;;2.63;0.60;;;;;;;;;;4995010;28;20088;-53
2022/08/07 13:01:29;;;;;;;2.05;0.85;;;;;;;;;;4994658;28;20030;-50
2022/08/07 13:04:05;;;;;;;2.50;1.25;;;;;;;;;;4994857;28;20042;-56
2022/08/07 13:06:50;;;;;;;4.78;0.90;;;;;;;;;;4994629;28;20049;-55
2022/08/07 13:09:35;;;;;;;1.30;0.80;;;;;;;;;;4992867;28;20488;-53
2022/08/07 13:12:14;;;;;;;2.40;0.73;;;;;;;;;;4994545;28;20030;-55
2022/08/07 13:15:01;;;;;;;2.53;1.20;;;;;;;;;;4975356;28;20074;-54
2022/08/07 13:17:28;;;;;;;2.50;1.00;;;;;;;;;;4978020;28;20069;-53
2022/08/07 13:19:55;;;;;;;3.47;0.85;;;;;;;;;;4975646;28;20034;-56
2022/08/07 13:22:38;;;;;;;2.83;1.10;;;;;;;;;;4994339;28;20396;-55
2022/08/07 13:25:10;;;;;;;2.28;0.90;;;;;;;;;;4994258;28;20042;-54
2022/08/07 13:27:38;;;;;;;1.60;0.98;;;;;;;;;;4970711;28;20094;-53
2022/08/07 13:30:13;;;;;;;3.33;0.93;;;;;;;;;;4983186;28;20403;-54
2022/08/07 13:33:00;;;;;;;2.78;1.05;;;;;;;;;;4982685;28;20039;-56
2022/08/07 13:35:42;;;;;;;2.97;1.15;;;;;;;;;;4964825;28;20405;-51
2022/08/07 13:38:31;;;;;;;2.60;1.10;;;;;;;;;;4984118;28;20026;-50
2022/08/07 13:41:10;;;;;;;5.50;1.15;;;;;;;;;;4964186;28;20065;-54
2022/08/07 13:43:44;;;;;;;2.88;1.10;;;;;;;;;;4982626;28;20030;-54
2022/08/07 13:46:13;;;;;;;2.50;0.90;;;;;;;;;;4983979;28;20042;-53
2022/08/07 13:48:40;;;;;;;3.15;1.10;;;;;;;;;;4985814;28;20089;-54
2022/08/07 13:51:07;;;;;;;1.92;1.00;;;;;;;;;;4987583;28;20037;-54
2022/08/07 13:53:37;;;;;;;5.05;1.70;;;;;;;;;;4984636;28;20026;-52
2022/08/07 13:56:05;;;;;;;2.65;1.00;;;;;;;;;;4978539;28;20031;-55
2022/08/07 14:01:26;;;;;;;3.45;1.20;;;;;;;;;;4974638;28;20514;-54
2022/08/07 14:03:54;;;;;;;2.30;1.00;;;;;;;;;;4974286;28;20026;-51
2022/08/07 14:06:22;;;;;;;3.40;1.13;;;;;;;;;;4974334;28;20034;-52
2022/08/07 14:08:50;;;;;;;6.78;1.00;;;;;;;;;;4974151;28;20030;-49
2022/08/07 14:11:19;;;;;;;4.45;1.30;;;;;;;;;;4978099;28;20029;-50
2022/08/07 14:13:54;;;;;;;10.13;1.67;;;;;;;;;;4993522;28;20084;-50
2022/08/07 14:16:25;;;;;;;12.70;2.15;;;;;;;;;;4993640;28;20113;-50
2022/08/07 14:18:53;;;;;;;15.15;1.65;;;;;;;;;;4993585;28;20057;-50
2022/08/07 14:21:24;;;;;;;8.18;1.42;;;;;;;;;;4993417;28;20030;-53
2022/08/07 14:23:58;;;;;;;8.88;1.90;;;;;;;;;;4993309;28;20105;-50
2022/08/07 14:26:45;;;;;;;8.38;1.40;;;;;;;;;;4993373;28;20092;-50
2022/08/07 14:29:13;;;;;;;6.30;1.83;;;;;;;;;;4980025;28;20039;-52
2022/08/07 14:31:40;;;;;;;6.13;1.60;;;;;;;;;;4993126;28;20096;-50
2022/08/07 14:34:07;;;;;;;6.88;1.92;;;;;;;;;;4993328;28;20022;-53
2022/08/07 14:36:35;;;;;;;8.40;1.92;;;;;;;;;;4993503;28;20472;-50
2022/08/07 14:39:03;;;;;;;4.75;1.58;;;;;;;;;;4993224;28;20080;-54
2022/08/07 14:41:32;;;;;;;7.40;1.90;;;;;;;;;;4993160;28;20396;-53
2022/08/07 14:44:01;;;;;;;8.90;1.90;;;;;;;;;;4993283;28;20022;-53
2022/08/07 14:46:28;;;;;;;7.40;2.05;;;;;;;;;;4992983;28;20045;-51
2022/08/07 14:48:56;;;;;;;14.18;1.92;;;;;;;;;;4973688;28;20031;-52
2022/08/07 14:51:28;;;;;;;8.90;1.73;;;;;;;;;;4982971;28;20034;-52
2022/08/07 14:53:56;;;;;;;5.90;1.70;;;;;;;;;;5007658;28;20030;-49
2022/08/07 14:56:24;;;;;;;7.57;2.08;;;;;;;;;;5012539;28;20519;-55
2022/08/07 14:58:53;;;;;;;4.22;1.70;;;;;;;;;;5012551;28;20105;-52
2022/08/07 15:01:23;;;;;;;12.52;1.92;;;;;;;;;;5012317;28;20038;-52
2022/08/07 15:03:51;;;;;;;13.13;2.50;;;;;;;;;;5003440;28;20408;-49
2022/08/07 15:06:21;;;;;;;14.70;2.38;;;;;;;;;;4984096;28;20042;-53
2022/08/07 15:08:52;;;;;;;13.23;2.78;;;;;;;;;;4992749;28;20045;-52
2022/08/07 15:11:24;;;;;;;7.18;2.10;;;;;;;;;;4992626;28;20503;-54
2022/08/07 15:13:59;;;;;;;8.05;1.98;;;;;;;;;;4992494;28;20384;-55
2022/08/07 15:16:30;;;;;;;8.45;2.35;;;;;;;;;;4975291;28;20030;-53
2022/08/07 15:18:57;;;;;;;13.23;2.55;;;;;;;;;;4992784;28;20432;-53